createdAt,value
2018-05-14T00:00:38.117Z,3.36
2018-05-14T00:01:38.126Z,3.28
2018-05-14T00:02:38.133Z,3.36
2018-05-14T00:03:38.146Z,3.48
2018-05-14T00:04:38.149Z,3.47
2018-05-14T00:05:38.167Z,3.47
2018-05-14T00:06:38.168Z,3.45
2018-05-14T00:07:38.176Z,3.42
2018-05-14T00:08:38.183Z,3.54
2018-05-14T00:09:38.195Z,3.33
2018-05-14T00:10:38.199Z,3.31
2018-05-14T00:11:38.212Z,3.32
2018-05-14T00:12:38.218Z,3.42
2018-05-14T00:13:38.225Z,3.45
2018-05-14T00:14:38.240Z,3.08
2018-05-14T00:15:38.245Z,3.11
2018-05-14T00:16:38.252Z,3.00
2018-05-14T00:17:38.259Z,3.02
2018-05-14T00:18:38.269Z,2.96
2018-05-14T00:19:38.275Z,2.90
2018-05-14T00:20:38.283Z,2.82
2018-05-14T00:21:38.292Z,2.85
2018-05-14T00:22:38.299Z,2.85
2018-05-14T00:23:38.308Z,2.87
2018-05-14T00:24:38.321Z,2.93
2018-05-14T00:25:38.323Z,2.93
2018-05-14T00:26:38.333Z,2.90
2018-05-14T00:27:38.340Z,2.97
2018-05-14T00:28:38.348Z,3.02
2018-05-14T00:29:38.356Z,2.92
2018-05-14T00:30:38.365Z,2.90
2018-05-14T00:31:38.374Z,2.85
2018-05-14T00:32:38.380Z,2.79
2018-05-14T00:33:38.388Z,2.69
2018-05-14T00:34:38.402Z,2.66
2018-05-14T00:35:38.409Z,2.66
2018-05-14T00:36:38.415Z,2.63
2018-05-14T00:37:38.421Z,2.66
2018-05-14T00:38:38.429Z,2.69
2018-05-14T00:39:38.436Z,2.77
2018-05-14T00:40:38.445Z,2.77
2018-05-14T00:41:38.452Z,2.89
2018-05-14T00:42:38.460Z,2.84
2018-05-14T00:43:38.471Z,2.66
2018-05-14T00:44:38.477Z,2.66
2018-05-14T00:45:38.484Z,2.60
2018-05-14T00:46:38.491Z,2.69
2018-05-14T00:47:38.499Z,2.69
2018-05-14T00:48:38.507Z,2.67
2018-05-14T00:49:38.515Z,2.79
2018-05-14T00:50:38.526Z,2.67
2018-05-14T00:51:38.530Z,2.77
2018-05-14T00:52:38.538Z,2.95
2018-05-14T00:53:38.546Z,2.82
2018-05-14T00:54:38.552Z,2.90
2018-05-14T00:55:38.561Z,2.95
2018-05-14T00:56:38.568Z,3.03
2018-05-14T00:57:38.576Z,3.02
2018-05-14T00:58:38.588Z,3.10
2018-05-14T00:59:38.591Z,3.08
2018-05-14T01:00:38.600Z,3.06
2018-05-14T01:01:38.606Z,3.06
2018-05-14T01:02:38.613Z,3.02
2018-05-14T01:03:38.623Z,2.97
2018-05-14T01:04:38.630Z,2.87
2018-05-14T01:05:38.637Z,2.93
2018-05-14T01:06:38.723Z,2.89
2018-05-14T01:07:38.654Z,2.95
2018-05-14T01:08:38.663Z,2.90
2018-05-14T01:09:38.668Z,2.90
2018-05-14T01:10:38.697Z,2.87
2018-05-14T01:11:38.686Z,2.89
2018-05-14T01:12:38.696Z,2.84
2018-05-14T01:13:38.701Z,2.77
2018-05-14T01:14:38.715Z,2.79
2018-05-14T01:15:38.716Z,2.79
2018-05-14T01:16:38.726Z,2.74
2018-05-14T01:17:38.732Z,2.79
2018-05-14T01:18:38.740Z,2.77
2018-05-14T01:19:38.749Z,2.87
2018-05-14T01:20:38.756Z,2.84
2018-05-14T01:21:38.763Z,2.67
2018-05-14T01:22:38.780Z,2.69
2018-05-14T01:23:38.779Z,2.66
2018-05-14T01:24:38.788Z,2.64
2018-05-14T01:25:38.794Z,2.66
2018-05-14T01:26:38.802Z,2.66
2018-05-14T01:27:38.809Z,2.60
2018-05-14T01:28:38.818Z,2.63
2018-05-14T01:29:38.824Z,2.67
2018-05-14T01:30:38.832Z,2.64
2018-05-14T01:31:38.840Z,2.57
2018-05-14T01:32:38.850Z,2.49
2018-05-14T01:33:38.857Z,2.63
2018-05-14T01:34:38.863Z,2.69
2018-05-14T01:35:38.871Z,2.78
2018-05-14T01:36:38.879Z,2.72
2018-05-14T01:37:38.886Z,2.79
2018-05-14T01:38:38.894Z,2.77
2018-05-14T01:39:38.904Z,2.78
2018-05-14T01:40:38.914Z,2.82
2018-05-14T01:41:38.917Z,2.87
2018-05-14T01:42:38.926Z,2.87
2018-05-14T01:43:38.935Z,2.77
2018-05-14T01:44:38.941Z,2.60
2018-05-14T01:45:38.949Z,2.69
2018-05-14T01:46:38.957Z,2.71
2018-05-14T01:47:38.964Z,2.75
2018-05-14T01:48:38.973Z,2.72
2018-05-14T01:49:38.980Z,2.77
2018-05-14T01:50:38.987Z,2.77
2018-05-14T01:51:38.997Z,2.66
2018-05-14T01:52:39.004Z,2.63
2018-05-14T01:53:39.014Z,2.63
2018-05-14T01:54:39.020Z,2.63
2018-05-14T01:55:39.029Z,2.72
2018-05-14T01:56:39.039Z,2.81
2018-05-14T01:57:39.040Z,2.78
2018-05-14T01:58:39.048Z,2.79
2018-05-14T01:59:39.060Z,2.59
2018-05-14T02:00:39.066Z,2.59
2018-05-14T02:01:39.073Z,2.57
2018-05-14T02:02:39.082Z,2.59
2018-05-14T02:03:39.091Z,2.61
2018-05-14T02:04:39.097Z,2.64
2018-05-14T02:05:39.106Z,2.77
2018-05-14T02:06:39.112Z,2.72
2018-05-14T02:07:39.119Z,2.78
2018-05-14T02:08:39.128Z,2.79
2018-05-14T02:09:39.134Z,2.78
2018-05-14T02:10:39.143Z,2.78
2018-05-14T02:11:39.150Z,2.75
2018-05-14T02:12:39.160Z,2.69
2018-05-14T02:13:39.180Z,2.38
2018-05-14T02:14:39.174Z,2.38
2018-05-14T02:15:39.181Z,2.43
2018-05-14T02:16:39.191Z,2.46
2018-05-14T02:17:39.199Z,2.48
2018-05-14T02:18:39.205Z,2.49
2018-05-14T02:19:39.211Z,2.52
2018-05-14T02:20:39.221Z,2.67
2018-05-14T02:21:39.228Z,2.56
2018-05-14T02:22:39.235Z,2.59
2018-05-14T02:23:39.242Z,2.43
2018-05-14T02:24:39.256Z,2.46
2018-05-14T02:25:39.257Z,2.34
2018-05-14T02:26:39.264Z,2.30
2018-05-14T02:27:39.275Z,2.21
2018-05-14T02:28:39.279Z,2.09
2018-05-14T02:29:39.286Z,2.05
2018-05-14T02:30:39.294Z,2.06
2018-05-14T02:31:39.303Z,2.09
2018-05-14T02:32:39.310Z,2.14
2018-05-14T02:33:39.318Z,2.21
2018-05-14T02:34:39.325Z,2.16
2018-05-14T02:35:39.334Z,2.25
2018-05-14T02:36:39.341Z,2.28
2018-05-14T02:37:39.347Z,2.27
2018-05-14T02:38:39.356Z,2.38
2018-05-14T02:39:39.365Z,2.35
2018-05-14T02:40:39.371Z,2.36
2018-05-14T02:41:39.377Z,2.42
2018-05-14T02:42:39.384Z,2.39
2018-05-14T02:43:39.396Z,2.41
2018-05-14T02:44:39.399Z,2.38
2018-05-14T02:45:39.407Z,2.39
2018-05-14T02:46:39.418Z,2.28
2018-05-14T02:47:39.422Z,2.09
2018-05-14T02:48:39.429Z,1.91
2018-05-14T02:49:39.437Z,1.84
2018-05-14T02:50:39.445Z,1.86
2018-05-14T02:51:39.454Z,1.81
2018-05-14T02:52:39.460Z,1.86
2018-05-14T02:53:39.520Z,1.91
2018-05-14T02:54:39.474Z,1.95
2018-05-14T02:55:39.480Z,2.00
2018-05-14T02:56:39.489Z,1.95
2018-05-14T02:57:39.495Z,2.02
2018-05-14T02:58:39.511Z,2.03
2018-05-14T02:59:39.511Z,2.05
2018-05-14T03:00:39.517Z,2.18
2018-05-14T03:01:39.524Z,2.20
2018-05-14T03:02:39.531Z,2.25
2018-05-14T03:03:39.540Z,1.99
2018-05-14T03:04:39.548Z,1.65
2018-05-14T03:05:39.554Z,1.69
2018-05-14T03:06:39.562Z,1.69
2018-05-14T03:07:39.569Z,1.80
2018-05-14T03:08:39.577Z,1.69
2018-05-14T03:09:39.589Z,1.63
2018-05-14T03:10:39.591Z,1.58
2018-05-14T03:11:39.604Z,1.51
2018-05-14T03:12:39.605Z,1.55
2018-05-14T03:13:39.614Z,1.34
2018-05-14T03:14:39.619Z,1.29
2018-05-14T03:15:39.627Z,1.23
2018-05-14T03:16:39.633Z,1.29
2018-05-14T03:17:39.641Z,1.26
2018-05-14T03:18:39.648Z,1.37
2018-05-14T03:19:39.654Z,1.40
2018-05-14T03:20:39.663Z,1.48
2018-05-14T03:21:39.667Z,1.55
2018-05-14T03:22:39.677Z,1.50
2018-05-14T03:23:39.683Z,1.50
2018-05-14T03:24:39.691Z,1.63
2018-05-14T03:25:39.697Z,1.69
2018-05-14T03:26:39.702Z,1.63
2018-05-14T03:27:39.709Z,1.73
2018-05-14T03:28:39.723Z,1.79
2018-05-14T03:29:39.727Z,1.87
2018-05-14T03:30:39.730Z,1.84
2018-05-14T03:31:39.738Z,1.93
2018-05-14T03:32:39.746Z,2.00
2018-05-14T03:33:39.754Z,2.07
2018-05-14T03:34:39.759Z,2.02
2018-05-14T03:35:39.767Z,2.18
2018-05-14T03:36:39.773Z,2.17
2018-05-14T03:37:39.779Z,2.10
2018-05-14T03:38:39.788Z,2.18
2018-05-14T03:39:39.794Z,2.16
2018-05-14T03:40:39.801Z,2.17
2018-05-14T03:41:39.811Z,2.14
2018-05-14T03:42:39.814Z,2.10
2018-05-14T03:43:39.823Z,2.06
2018-05-14T03:44:39.830Z,2.20
2018-05-14T03:45:39.835Z,2.16
2018-05-14T03:46:39.843Z,2.03
2018-05-14T03:47:39.851Z,2.09
2018-05-14T03:48:39.859Z,2.00
2018-05-14T03:49:39.863Z,2.07
2018-05-14T03:50:39.881Z,2.03
2018-05-14T03:51:39.877Z,2.07
2018-05-14T03:52:39.886Z,2.07
2018-05-14T03:53:39.895Z,2.07
2018-05-14T03:54:39.903Z,2.03
2018-05-14T03:55:39.906Z,2.06
2018-05-14T03:56:39.915Z,2.06
2018-05-14T03:57:39.920Z,2.17
2018-05-14T03:58:39.927Z,2.16
2018-05-14T03:59:39.940Z,2.00
2018-05-14T04:00:39.941Z,1.86
2018-05-14T04:01:39.948Z,1.87
2018-05-14T04:02:39.956Z,1.93
2018-05-14T04:03:39.964Z,1.84
2018-05-14T04:04:39.972Z,1.98
2018-05-14T04:05:39.983Z,1.93
2018-05-14T04:06:39.984Z,1.90
2018-05-14T04:07:39.991Z,1.91
2018-05-14T04:08:39.999Z,1.90
2018-05-14T04:09:40.011Z,1.95
2018-05-14T04:10:40.013Z,2.00
2018-05-14T04:11:40.024Z,1.90
2018-05-14T04:12:40.030Z,1.99
2018-05-14T04:13:40.033Z,2.02
2018-05-14T04:14:40.041Z,1.99
2018-05-14T04:15:40.048Z,2.05
2018-05-14T04:16:40.062Z,2.02
2018-05-14T04:17:40.061Z,2.18
2018-05-14T04:18:40.069Z,2.12
2018-05-14T04:19:40.078Z,2.06
2018-05-14T04:20:40.084Z,2.09
2018-05-14T04:21:40.091Z,2.14
2018-05-14T04:22:40.096Z,2.16
2018-05-14T04:23:40.104Z,2.02
2018-05-14T04:24:40.111Z,2.09
2018-05-14T04:25:40.118Z,2.09
2018-05-14T04:26:40.125Z,2.02
2018-05-14T04:27:40.133Z,2.05
2018-05-14T04:28:40.140Z,2.00
2018-05-14T04:29:40.147Z,1.99
2018-05-14T04:30:40.161Z,1.91
2018-05-14T04:31:40.162Z,1.88
2018-05-14T04:32:40.171Z,1.87
2018-05-14T04:33:40.175Z,1.98
2018-05-14T04:34:40.182Z,2.02
2018-05-14T04:35:40.189Z,1.98
2018-05-14T04:36:40.198Z,2.05
2018-05-14T04:37:40.204Z,2.10
2018-05-14T04:38:40.210Z,2.14
2018-05-14T04:39:40.220Z,2.17
2018-05-14T04:40:40.226Z,2.16
2018-05-14T04:41:40.231Z,2.18
2018-05-14T04:42:40.243Z,2.21
2018-05-14T04:43:40.247Z,2.16
2018-05-14T04:44:40.253Z,2.14
2018-05-14T04:45:40.262Z,2.12
2018-05-14T04:46:40.267Z,2.05
2018-05-14T04:47:40.273Z,2.02
2018-05-14T04:48:40.281Z,2.02
2018-05-14T04:49:40.288Z,2.02
2018-05-14T04:50:40.300Z,2.05
2018-05-14T04:51:40.301Z,2.02
2018-05-14T04:52:40.309Z,2.00
2018-05-14T04:53:40.316Z,1.84
2018-05-14T04:54:40.323Z,1.93
2018-05-14T04:55:40.330Z,1.80
2018-05-14T04:56:40.340Z,1.79
2018-05-14T04:57:40.343Z,1.65
2018-05-14T04:58:40.352Z,1.52
2018-05-14T04:59:40.359Z,1.62
2018-05-14T05:00:40.367Z,1.55
2018-05-14T05:01:40.375Z,1.58
2018-05-14T05:02:40.388Z,1.48
2018-05-14T05:03:40.392Z,1.55
2018-05-14T05:04:40.394Z,1.52
2018-05-14T05:05:40.402Z,1.42
2018-05-14T05:06:40.407Z,1.48
2018-05-14T05:07:40.415Z,1.42
2018-05-14T05:08:40.421Z,1.48
2018-05-14T05:09:40.428Z,1.48
2018-05-14T05:10:40.436Z,1.68
2018-05-14T05:11:40.444Z,1.59
2018-05-14T05:12:40.451Z,1.63
2018-05-14T05:13:40.456Z,1.68
2018-05-14T05:14:40.463Z,1.63
2018-05-14T05:15:40.469Z,1.54
2018-05-14T05:16:40.486Z,1.51
2018-05-14T05:17:40.483Z,1.51
2018-05-14T05:18:40.491Z,1.58
2018-05-14T05:19:40.500Z,1.65
2018-05-14T05:20:40.504Z,1.76
2018-05-14T05:21:40.512Z,1.76
2018-05-14T05:22:40.519Z,1.76
2018-05-14T05:23:40.526Z,1.86
2018-05-14T05:24:40.533Z,1.87
2018-05-14T05:25:40.542Z,1.99
2018-05-14T05:26:40.549Z,2.09
2018-05-14T05:27:40.553Z,2.12
2018-05-14T05:28:40.561Z,2.18
2018-05-14T05:29:40.570Z,2.10
2018-05-14T05:30:40.575Z,2.18
2018-05-14T05:31:40.583Z,2.20
2018-05-14T05:32:40.589Z,2.28
2018-05-14T05:33:40.600Z,2.27
2018-05-14T05:34:40.603Z,2.31
2018-05-14T05:35:40.612Z,2.39
2018-05-14T05:36:40.618Z,2.41
2018-05-14T05:37:40.654Z,2.48
2018-05-14T05:38:40.631Z,2.56
2018-05-14T05:39:40.640Z,2.59
2018-05-14T05:40:40.646Z,2.69
2018-05-14T05:41:40.655Z,2.63
2018-05-14T05:42:40.659Z,2.74
2018-05-14T05:43:40.667Z,2.87
2018-05-14T05:44:40.674Z,2.93
2018-05-14T05:45:40.684Z,2.95
2018-05-14T05:46:40.691Z,2.97
2018-05-14T05:47:40.696Z,2.96
2018-05-14T05:48:40.705Z,3.11
2018-05-14T05:49:40.710Z,3.06
2018-05-14T05:50:40.717Z,3.06
2018-05-14T05:51:40.724Z,3.05
2018-05-14T05:52:40.734Z,3.05
2018-05-14T05:53:40.740Z,2.97
2018-05-14T05:54:40.753Z,3.05
2018-05-14T05:55:40.758Z,3.11
2018-05-14T05:56:40.765Z,3.05
2018-05-14T05:57:40.771Z,3.10
2018-05-14T05:58:40.779Z,3.06
2018-05-14T05:59:40.785Z,3.20
2018-05-14T06:00:40.795Z,3.08
2018-05-14T06:01:40.803Z,3.17
2018-05-14T06:02:40.809Z,3.26
2018-05-14T06:03:40.817Z,3.28
2018-05-14T06:04:40.825Z,3.32
2018-05-14T06:05:40.831Z,3.40
2018-05-14T06:06:40.842Z,3.39
2018-05-14T06:07:40.849Z,3.17
2018-05-14T06:08:40.856Z,3.23
2018-05-14T06:09:40.863Z,3.24
2018-05-14T06:10:40.871Z,3.11
2018-05-14T06:11:40.879Z,3.10
2018-05-14T06:12:40.892Z,3.03
2018-05-14T06:13:40.895Z,3.06
2018-05-14T06:14:40.902Z,3.02
2018-05-14T06:15:40.910Z,3.10
2018-05-14T06:16:40.918Z,3.24
2018-05-14T06:17:40.927Z,3.24
2018-05-14T06:18:40.934Z,3.39
2018-05-14T06:19:40.942Z,3.36
2018-05-14T06:20:40.951Z,3.52
2018-05-14T06:21:40.957Z,3.60
2018-05-14T06:22:40.966Z,3.57
2018-05-14T06:23:40.974Z,3.58
2018-05-14T06:24:40.981Z,3.61
2018-05-14T06:25:40.989Z,3.58
2018-05-14T06:26:40.998Z,3.66
2018-05-14T06:27:41.007Z,3.54
2018-05-14T06:28:41.015Z,3.43
2018-05-14T06:29:41.022Z,3.40
2018-05-14T06:30:41.031Z,3.32
2018-05-14T06:31:41.038Z,3.39
2018-05-14T06:32:41.049Z,3.43
2018-05-14T06:33:41.055Z,3.40
2018-05-14T06:34:41.062Z,3.45
2018-05-14T06:35:41.186Z,3.50
2018-05-14T06:36:41.081Z,3.61
2018-05-14T06:37:41.096Z,3.66
2018-05-14T06:38:41.097Z,3.51
2018-05-14T06:39:41.106Z,3.21
2018-05-14T06:40:41.114Z,3.03
2018-05-14T06:41:41.121Z,2.74
2018-05-14T06:42:41.130Z,2.46
2018-05-14T06:43:41.141Z,2.49
2018-05-14T06:44:41.150Z,2.49
2018-05-14T06:45:41.153Z,2.03
2018-05-14T06:46:41.163Z,2.16
2018-05-14T06:47:41.171Z,2.17
2018-05-14T06:48:41.180Z,2.25
2018-05-14T06:49:41.187Z,2.64
2018-05-14T06:50:41.195Z,2.81
2018-05-14T06:51:41.203Z,2.99
2018-05-14T06:52:41.211Z,3.13
2018-05-14T06:53:41.220Z,3.23
2018-05-14T06:54:41.228Z,3.33
2018-05-14T06:55:41.235Z,3.45
2018-05-14T06:56:41.242Z,3.51
2018-05-14T06:57:41.346Z,3.60
2018-05-14T06:58:41.259Z,3.66
2018-05-14T06:59:41.267Z,3.65
2018-05-14T07:00:41.280Z,3.73
2018-05-14T07:01:41.283Z,3.83
2018-05-14T07:02:41.291Z,3.91
2018-05-14T07:03:41.299Z,4.06
2018-05-14T07:04:41.310Z,4.11
2018-05-14T07:05:41.318Z,4.20
2018-05-14T07:06:41.324Z,4.26
2018-05-14T07:07:41.398Z,4.20
2018-05-14T07:08:41.342Z,4.23
2018-05-14T07:09:41.351Z,4.09
2018-05-14T07:10:41.366Z,3.96
2018-05-14T07:11:41.369Z,4.12
2018-05-14T07:12:41.380Z,3.84
2018-05-14T07:13:41.385Z,3.35
2018-05-14T07:14:41.483Z,3.39
2018-05-14T07:15:41.523Z,3.20
2018-05-14T07:16:41.680Z,3.10
2018-05-14T07:17:41.419Z,3.21
2018-05-14T07:18:41.428Z,3.35
2018-05-14T07:19:41.436Z,3.47
2018-05-14T07:20:41.446Z,3.57
2018-05-14T07:21:41.456Z,3.58
2018-05-14T07:22:41.461Z,3.73
2018-05-14T07:23:41.470Z,3.72
2018-05-14T07:24:41.559Z,3.51
2018-05-14T07:25:41.488Z,3.55
2018-05-14T07:26:41.495Z,3.55
2018-05-14T07:27:41.504Z,3.50
2018-05-14T07:28:41.521Z,3.54
2018-05-14T07:29:41.525Z,3.76
2018-05-14T07:30:41.530Z,3.76
2018-05-14T07:31:41.540Z,3.83
2018-05-14T07:32:41.547Z,3.86
2018-05-14T07:33:41.555Z,3.91
2018-05-14T07:34:41.566Z,4.02
2018-05-14T07:35:41.574Z,4.14
2018-05-14T07:36:41.583Z,4.30
2018-05-14T07:37:41.591Z,3.65
2018-05-14T07:38:41.600Z,3.20
2018-05-14T07:39:41.611Z,3.20
2018-05-14T07:40:41.618Z,2.72
2018-05-14T07:41:41.625Z,2.49
2018-05-14T07:42:41.634Z,2.21
2018-05-14T07:43:41.643Z,2.14
2018-05-14T07:44:41.651Z,2.35
2018-05-14T07:45:41.659Z,2.43
2018-05-14T07:46:41.674Z,2.61
2018-05-14T07:47:41.679Z,2.74
2018-05-14T07:48:41.688Z,2.90
2018-05-14T07:49:41.693Z,3.11
2018-05-14T07:50:41.704Z,3.23
2018-05-14T07:51:41.716Z,3.48
2018-05-14T07:52:41.719Z,3.69
2018-05-14T07:53:41.726Z,4.08
2018-05-14T07:54:41.734Z,3.91
2018-05-14T07:55:41.745Z,3.78
2018-05-14T07:56:41.754Z,3.42
2018-05-14T07:57:41.761Z,3.26
2018-05-14T07:58:41.770Z,3.08
2018-05-14T07:59:41.780Z,2.84
2018-05-14T08:00:41.788Z,2.66
2018-05-14T08:01:41.795Z,2.59
2018-05-14T08:02:41.804Z,2.46
2018-05-14T08:03:41.816Z,2.57
2018-05-14T08:04:41.821Z,2.81
2018-05-14T08:05:41.919Z,3.05
2018-05-14T08:06:41.838Z,3.14
2018-05-14T08:07:41.847Z,3.39
2018-05-14T08:08:41.856Z,3.66
2018-05-14T08:09:41.863Z,3.83
2018-05-14T08:10:41.870Z,4.11
2018-05-14T08:11:41.952Z,4.44
2018-05-14T08:12:41.889Z,4.59
2018-05-14T08:13:41.898Z,4.77
2018-05-14T08:14:41.910Z,4.97
2018-05-14T08:15:41.919Z,5.09
2018-05-14T08:16:41.924Z,4.70
2018-05-14T08:17:41.936Z,4.50
2018-05-14T08:18:41.942Z,4.37
2018-05-14T08:19:41.949Z,4.20
2018-05-14T08:20:41.962Z,4.11
2018-05-14T08:21:41.966Z,3.98
2018-05-14T08:22:41.977Z,4.02
2018-05-14T08:23:41.986Z,3.94
2018-05-14T08:24:41.996Z,3.86
2018-05-14T08:25:42.004Z,3.55
2018-05-14T08:26:42.011Z,3.42
2018-05-14T08:27:42.025Z,3.52
2018-05-14T08:28:42.031Z,3.84
2018-05-14T08:29:42.037Z,4.06
2018-05-14T08:30:42.050Z,4.26
2018-05-14T08:31:42.059Z,4.34
2018-05-14T08:32:42.066Z,4.34
2018-05-14T08:33:42.075Z,4.51
2018-05-14T08:34:42.148Z,4.84
2018-05-14T08:35:42.098Z,4.85
2018-05-14T08:36:42.103Z,4.70
2018-05-14T08:37:42.111Z,3.93
2018-05-14T08:38:42.121Z,4.09
2018-05-14T08:39:42.132Z,3.97
2018-05-14T08:40:42.140Z,4.24
2018-05-14T08:41:42.148Z,4.27
2018-05-14T08:42:42.157Z,4.36
2018-05-14T08:43:42.167Z,4.52
2018-05-14T08:44:42.178Z,4.75
2018-05-14T08:45:42.184Z,4.85
2018-05-14T08:46:42.194Z,4.75
2018-05-14T08:47:42.204Z,4.75
2018-05-14T08:48:42.215Z,4.82
2018-05-14T08:49:42.220Z,4.85
2018-05-14T08:50:42.233Z,4.86
2018-05-14T08:51:42.240Z,5.00
2018-05-14T08:52:42.251Z,5.20
2018-05-14T08:53:42.257Z,5.21
2018-05-14T08:54:42.270Z,5.15
2018-05-14T08:55:42.279Z,5.17
2018-05-14T08:56:42.290Z,5.33
2018-05-14T08:57:42.383Z,5.28
2018-05-14T08:58:42.304Z,5.21
2018-05-14T08:59:42.313Z,4.96
2018-05-14T09:00:42.343Z,4.99
2018-05-14T09:01:42.332Z,4.44
2018-05-14T09:02:42.343Z,4.20
2018-05-14T09:03:42.350Z,4.04
2018-05-14T09:04:42.363Z,3.94
2018-05-14T09:05:42.371Z,3.96
2018-05-14T09:06:42.380Z,3.87
2018-05-14T09:07:42.396Z,3.57
2018-05-14T09:08:42.427Z,3.50
2018-05-14T09:09:42.408Z,3.70
2018-05-14T09:10:42.417Z,3.88
2018-05-14T09:11:42.431Z,4.15
2018-05-14T09:12:42.434Z,4.47
2018-05-14T09:13:42.444Z,4.44
2018-05-14T09:14:42.453Z,4.51
2018-05-14T09:15:42.465Z,4.24
2018-05-14T09:16:42.473Z,4.23
2018-05-14T09:17:42.480Z,4.23
2018-05-14T09:18:42.490Z,4.09
2018-05-14T09:19:42.650Z,4.11
2018-05-14T09:20:42.513Z,3.88
2018-05-14T09:21:42.516Z,4.05
2018-05-14T09:22:42.526Z,3.91
2018-05-14T09:23:42.537Z,3.84
2018-05-14T09:24:42.544Z,3.70
2018-05-14T09:25:42.553Z,3.86
2018-05-14T09:26:42.561Z,3.93
2018-05-14T09:27:42.571Z,3.57
2018-05-14T09:28:42.579Z,3.33
2018-05-14T09:29:42.588Z,3.40
2018-05-14T09:30:42.597Z,3.48
2018-05-14T09:31:42.605Z,3.54
2018-05-14T09:32:42.620Z,3.54
2018-05-14T09:33:42.623Z,3.65
2018-05-14T09:34:42.631Z,3.66
2018-05-14T09:35:42.642Z,3.97
2018-05-14T09:36:42.653Z,4.08
2018-05-14T09:37:42.659Z,4.24
2018-05-14T09:38:42.666Z,4.06
2018-05-14T09:39:42.675Z,4.22
2018-05-14T09:40:42.685Z,4.24
2018-05-14T09:41:42.691Z,4.42
2018-05-14T09:42:42.701Z,4.59
2018-05-14T09:43:42.711Z,4.52
2018-05-14T09:44:42.721Z,4.42
2018-05-14T09:45:42.728Z,4.37
2018-05-14T09:46:42.739Z,4.27
2018-05-14T09:47:42.746Z,4.27
2018-05-14T09:48:42.756Z,4.14
2018-05-14T09:49:42.766Z,3.90
2018-05-14T09:50:42.776Z,3.96
2018-05-14T09:51:42.780Z,3.93
2018-05-14T09:52:42.790Z,3.97
2018-05-14T09:53:42.799Z,3.90
2018-05-14T09:54:42.806Z,4.23
2018-05-14T09:55:42.815Z,4.32
2018-05-14T09:56:42.827Z,4.54
2018-05-14T09:57:42.833Z,4.36
2018-05-14T09:58:42.844Z,4.34
2018-05-14T09:59:42.852Z,3.86
2018-05-14T10:00:42.864Z,3.96
2018-05-14T10:01:42.868Z,4.26
2018-05-14T10:02:42.877Z,4.42
2018-05-14T10:03:42.888Z,4.73
2018-05-14T10:04:42.896Z,4.62
2018-05-14T10:05:42.908Z,4.50
2018-05-14T10:06:42.916Z,4.36
2018-05-14T10:07:42.924Z,4.34
2018-05-14T10:08:42.933Z,4.42
2018-05-14T10:09:42.944Z,4.69
2018-05-14T10:10:42.954Z,4.84
2018-05-14T10:11:42.959Z,4.84
2018-05-14T10:12:42.968Z,4.97
2018-05-14T10:13:42.975Z,5.12
2018-05-14T10:14:42.988Z,5.00
2018-05-14T10:15:42.997Z,4.94
2018-05-14T10:16:43.008Z,4.69
2018-05-14T10:17:43.013Z,4.60
2018-05-14T10:18:43.100Z,4.67
2018-05-14T10:19:43.038Z,4.70
2018-05-14T10:20:43.041Z,4.88
2018-05-14T10:21:43.052Z,5.07
2018-05-14T10:22:43.059Z,5.02
2018-05-14T10:23:43.069Z,5.17
2018-05-14T10:24:43.100Z,5.36
2018-05-14T10:25:43.087Z,5.10
2018-05-14T10:26:43.097Z,4.69
2018-05-14T10:27:43.109Z,4.70
2018-05-14T10:28:43.121Z,4.82
2018-05-14T10:29:43.125Z,4.85
2018-05-14T10:30:43.133Z,4.67
2018-05-14T10:31:43.143Z,5.03
2018-05-14T10:32:43.153Z,4.60
2018-05-14T10:33:43.160Z,4.77
2018-05-14T10:34:43.171Z,4.67
2018-05-14T10:35:43.181Z,5.00
2018-05-14T10:36:43.189Z,5.24
2018-05-14T10:37:43.198Z,5.28
2018-05-14T10:38:43.207Z,5.58
2018-05-14T10:39:43.218Z,5.54
2018-05-14T10:40:43.307Z,5.67
2018-05-14T10:41:43.235Z,5.46
2018-05-14T10:42:43.245Z,5.51
2018-05-14T10:43:43.253Z,5.27
2018-05-14T10:44:43.268Z,5.13
2018-05-14T10:45:43.272Z,4.78
2018-05-14T10:46:43.381Z,4.67
2018-05-14T10:47:43.293Z,4.48
2018-05-14T10:48:43.303Z,4.33
2018-05-14T10:49:43.311Z,4.26
2018-05-14T10:50:43.321Z,4.42
2018-05-14T10:51:43.330Z,4.63
2018-05-14T10:52:43.349Z,4.86
2018-05-14T10:53:43.350Z,4.77
2018-05-14T10:54:43.356Z,4.82
2018-05-14T10:55:43.366Z,4.92
2018-05-14T10:56:43.377Z,5.07
2018-05-14T10:57:43.385Z,5.06
2018-05-14T10:58:43.447Z,5.04
2018-05-14T10:59:43.404Z,5.13
2018-05-14T11:00:43.414Z,5.22
2018-05-14T11:01:43.423Z,5.46
2018-05-14T11:02:43.430Z,5.60
2018-05-14T11:03:43.456Z,5.96
2018-05-14T11:04:43.450Z,5.83
2018-05-14T11:05:43.457Z,5.82
2018-05-14T11:06:43.470Z,6.03
2018-05-14T11:07:43.482Z,6.22
2018-05-14T11:08:43.487Z,6.44
2018-05-14T11:09:43.496Z,5.96
2018-05-14T11:10:43.507Z,5.83
2018-05-14T11:11:43.519Z,5.68
2018-05-14T11:12:43.527Z,5.67
2018-05-14T11:13:43.541Z,5.68
2018-05-14T11:14:43.545Z,5.78
2018-05-14T11:15:43.557Z,5.91
2018-05-14T11:16:43.567Z,6.18
2018-05-14T11:17:43.577Z,6.36
2018-05-14T11:18:43.643Z,6.38
2018-05-14T11:19:43.592Z,6.59
2018-05-14T11:20:43.604Z,6.81
2018-05-14T11:21:43.612Z,6.79
2018-05-14T11:22:43.629Z,6.61
2018-05-14T11:23:43.636Z,6.85
2018-05-14T11:24:43.644Z,6.76
2018-05-14T11:25:43.654Z,6.87
2018-05-14T11:26:43.663Z,6.92
2018-05-14T11:27:43.764Z,7.06
2018-05-14T11:28:43.684Z,7.35
2018-05-14T11:29:43.693Z,7.74
2018-05-14T11:30:43.703Z,8.25
2018-05-14T11:31:43.718Z,8.36
2018-05-14T11:32:43.724Z,8.15
2018-05-14T11:33:43.736Z,7.52
2018-05-14T11:34:43.748Z,7.95
2018-05-14T11:35:43.756Z,8.29
2018-05-14T11:36:43.767Z,8.19
2018-05-14T11:37:43.776Z,8.05
2018-05-14T11:38:43.788Z,7.85
2018-05-14T11:39:43.800Z,7.89
2018-05-14T11:40:43.809Z,7.89
2018-05-14T11:41:43.824Z,8.25
2018-05-14T11:42:43.831Z,8.37
2018-05-14T11:43:43.842Z,8.23
2018-05-14T11:44:43.857Z,8.04
2018-05-14T11:45:43.865Z,7.74
2018-05-14T11:46:43.879Z,7.50
2018-05-14T11:47:43.887Z,7.21
2018-05-14T11:48:43.900Z,7.09
2018-05-14T11:49:43.906Z,7.37
2018-05-14T11:50:43.978Z,7.31
2018-05-14T11:51:43.930Z,7.20
2018-05-14T11:52:43.944Z,6.99
2018-05-14T11:53:43.955Z,6.49
2018-05-14T11:54:43.964Z,6.67
2018-05-14T11:55:43.975Z,6.95
2018-05-14T11:56:44.047Z,6.74
2018-05-14T11:57:43.995Z,6.89
2018-05-14T11:58:44.009Z,7.17
2018-05-14T11:59:44.022Z,7.43
2018-05-14T12:00:44.032Z,7.69
2018-05-14T12:01:44.041Z,8.01
2018-05-14T12:02:44.069Z,8.28
2018-05-14T12:03:44.062Z,8.59
2018-05-14T12:04:44.074Z,8.55
2018-05-14T12:05:44.085Z,8.47
2018-05-14T12:06:44.096Z,8.63
2018-05-14T12:07:44.107Z,9.24
2018-05-14T12:08:44.125Z,8.79
2018-05-14T12:09:44.130Z,9.10
2018-05-14T12:10:44.141Z,9.48
2018-05-14T12:11:44.156Z,9.23
2018-05-14T12:12:44.166Z,9.33
2018-05-14T12:13:44.175Z,9.42
2018-05-14T12:14:44.188Z,9.66
2018-05-14T12:15:44.200Z,10.09
2018-05-14T12:16:44.211Z,10.29
2018-05-14T12:17:44.222Z,10.41
2018-05-14T12:18:44.234Z,10.15
2018-05-14T12:19:44.251Z,10.30
2018-05-14T12:20:44.258Z,9.76
2018-05-14T12:21:44.270Z,10.04
2018-05-14T12:22:44.284Z,9.87
2018-05-14T12:23:44.296Z,9.28
2018-05-14T12:24:44.308Z,9.33
2018-05-14T12:25:44.373Z,9.56
2018-05-14T12:26:44.334Z,9.10
2018-05-14T12:27:44.345Z,8.91
2018-05-14T12:28:44.361Z,8.73
2018-05-14T12:29:44.373Z,8.81
2018-05-14T12:30:44.383Z,9.17
2018-05-14T12:31:44.397Z,9.53
2018-05-14T12:32:44.414Z,9.47
2018-05-14T12:33:44.417Z,8.83
2018-05-14T12:34:44.431Z,8.77
2018-05-14T12:35:44.446Z,8.76
2018-05-14T12:36:44.463Z,8.56
2018-05-14T12:37:44.470Z,8.40
2018-05-14T12:38:44.481Z,8.47
2018-05-14T12:39:44.494Z,8.74
2018-05-14T12:40:44.505Z,9.31
2018-05-14T12:41:44.517Z,9.61
2018-05-14T12:42:44.533Z,10.05
2018-05-14T12:43:44.542Z,9.51
2018-05-14T12:44:44.562Z,9.29
2018-05-14T12:45:44.567Z,8.94
2018-05-14T12:46:44.579Z,8.83
2018-05-14T12:47:44.590Z,8.98
2018-05-14T12:48:44.604Z,8.15
2018-05-14T12:49:44.614Z,8.25
2018-05-14T12:50:44.627Z,8.59
2018-05-14T12:51:44.639Z,8.73
2018-05-14T12:52:44.652Z,8.77
2018-05-14T12:53:44.664Z,9.15
2018-05-14T12:54:44.678Z,9.31
2018-05-14T12:55:44.687Z,9.20
2018-05-14T12:56:44.700Z,9.29
2018-05-14T12:57:44.714Z,9.51
2018-05-14T12:58:44.725Z,9.17
2018-05-14T12:59:44.737Z,8.68
2018-05-14T13:00:44.754Z,8.86
2018-05-14T13:01:44.760Z,9.04
2018-05-14T13:02:44.771Z,8.96
2018-05-14T13:03:44.789Z,8.99
2018-05-14T13:04:44.798Z,9.01
2018-05-14T13:05:44.809Z,8.92
2018-05-14T13:06:44.824Z,8.83
2018-05-14T13:07:44.840Z,8.56
2018-05-14T13:08:44.846Z,8.62
2018-05-14T13:09:44.858Z,8.50
2018-05-14T13:10:44.870Z,8.45
2018-05-14T13:11:44.885Z,8.20
2018-05-14T13:12:44.896Z,8.71
2018-05-14T13:13:44.907Z,9.32
2018-05-14T13:14:44.920Z,9.01
2018-05-14T13:15:44.936Z,8.86
2018-05-14T13:16:44.944Z,9.56
2018-05-14T13:17:44.955Z,10.05
2018-05-14T13:18:44.969Z,10.52